Time;durP1;ratioP1;P1;durP2;ratioP2;P2;SDS_P1;SDS_P2;PMS_P1;PMS_P2;Temp;Humidity;BMP_temperature;BMP_pressure;BME280_temperature;BME280_humidity;BME280_pressure;Samples;Min_cycle;Max_cycle;Signal;HPM_P1;HPM_P2
2022/05/09 00:02:11;;;;;;;1.15;0.88;;;19.10;31.80;;;;;;5036034;28;20678;-85
2022/05/09 00:04:37;;;;;;;3.00;0.82;;;19.10;32.00;;;;;;5019421;28;20188;-86
2022/05/09 00:07:04;;;;;;;1.05;0.90;;;19.10;31.90;;;;;;5035908;28;20155;-86
2022/05/09 00:09:31;;;;;;;1.15;0.88;;;19.10;32.00;;;;;;5035930;28;20300;-85
2022/05/09 00:11:58;;;;;;;1.95;1.00;;;19.10;32.00;;;;;;5018678;28;20182;-85
2022/05/09 00:14:24;;;;;;;1.25;0.80;;;19.00;32.00;;;;;;5035623;28;20150;-85
2022/05/09 00:16:51;;;;;;;1.45;0.80;;;19.10;32.10;;;;;;5019208;28;20174;-86
2022/05/09 00:19:20;;;;;;;0.85;0.68;;;19.10;32.10;;;;;;5019143;28;20174;-86
2022/05/09 00:21:46;;;;;;;1.40;1.00;;;19.10;32.10;;;;;;5019586;28;20170;-86
2022/05/09 00:24:14;;;;;;;2.33;1.08;;;19.10;32.20;;;;;;5036279;28;20170;-85
2022/05/09 00:26:41;;;;;;;1.33;0.80;;;19.10;32.20;;;;;;5035767;28;20609;-86
2022/05/09 00:29:08;;;;;;;1.63;0.85;;;19.10;32.30;;;;;;5019095;28;20286;-85
2022/05/09 00:31:34;;;;;;;1.13;1.02;;;19.10;32.30;;;;;;5035625;28;20157;-86
2022/05/09 00:34:00;;;;;;;1.30;0.82;;;19.10;32.30;;;;;;5018893;28;20161;-85
2022/05/09 00:36:25;;;;;;;2.10;1.23;;;19.10;32.30;;;;;;5035777;28;20175;-86
2022/05/09 00:38:51;;;;;;;0.85;0.80;;;19.10;32.40;;;;;;5035693;28;20166;-86
2022/05/09 00:43:55;;;;;;;1.17;0.90;;;19.00;32.40;;;;;;5037059;28;20158;-85
2022/05/09 00:46:22;;;;;;;0.93;0.90;;;19.10;32.40;;;;;;5035378;28;20149;-85
2022/05/09 00:48:49;;;;;;;1.83;1.00;;;19.00;32.30;;;;;;5035228;28;20174;-86
2022/05/09 00:51:18;;;;;;;1.23;0.93;;;19.10;32.40;;;;;;5018921;28;20215;-86
2022/05/09 00:53:44;;;;;;;6.22;1.15;;;19.00;32.50;;;;;;5018926;28;20617;-86
2022/05/09 00:56:13;;;;;;;1.13;1.00;;;19.00;32.50;;;;;;5035261;28;20159;-86
2022/05/09 00:58:42;;;;;;;2.75;1.23;;;19.00;32.50;;;;;;5018923;28;20261;-86
2022/05/09 01:01:09;;;;;;;0.90;0.80;;;19.00;32.50;;;;;;5019026;28;20201;-85
2022/05/09 01:03:48;;;;;;;0.98;0.80;;;19.00;32.60;;;;;;5035179;28;20154;-86
2022/05/09 01:06:14;;;;;;;1.23;0.80;;;19.00;32.70;;;;;;5036183;28;20161;-85
2022/05/09 01:08:40;;;;;;;1.85;0.98;;;19.00;32.60;;;;;;5034794;28;20553;-85
2022/05/09 01:11:09;;;;;;;1.17;0.90;;;19.00;32.70;;;;;;5035422;28;20146;-86
2022/05/09 01:13:37;;;;;;;2.50;0.80;;;19.00;32.70;;;;;;5018476;28;20166;-85
2022/05/09 01:16:04;;;;;;;1.77;0.80;;;18.90;32.70;;;;;;5035186;28;20190;-86
2022/05/09 01:18:29;;;;;;;1.42;0.80;;;19.00;32.70;;;;;;5018775;28;20196;-86
2022/05/09 01:20:55;;;;;;;1.63;0.93;;;19.00;32.80;;;;;;5018377;28;20704;-85
2022/05/09 01:23:21;;;;;;;1.05;0.85;;;19.00;32.80;;;;;;5035237;28;20637;-86
2022/05/09 01:25:49;;;;;;;1.98;0.90;;;19.00;32.90;;;;;;5018335;28;20510;-85
2022/05/09 01:28:16;;;;;;;0.80;0.80;;;18.90;32.90;;;;;;5001406;28;20255;-86
2022/05/09 01:30:54;;;;;;;1.08;0.80;;;19.00;32.90;;;;;;5001329;28;20650;-86
2022/05/09 01:33:24;;;;;;;1.00;0.90;;;19.00;33.00;;;;;;5018746;28;20710;-85
2022/05/09 01:35:53;;;;;;;1.15;0.85;;;19.00;33.00;;;;;;5001577;28;20181;-86
2022/05/09 01:38:40;;;;;;;1.42;0.98;;;19.00;33.00;;;;;;5052557;28;20565;-86
2022/05/09 01:41:06;;;;;;;1.55;1.13;;;19.00;33.00;;;;;;5020025;28;20170;-86
2022/05/09 01:43:36;;;;;;;2.25;0.95;;;19.00;33.00;;;;;;5021897;28;20181;-86
2022/05/09 01:46:03;;;;;;;1.73;0.90;;;18.90;33.10;;;;;;5021988;28;20166;-86
2022/05/09 01:51:07;;;;;;;1.52;0.85;;;18.90;33.80;;;;;;5040224;28;20158;-86
2022/05/09 01:53:33;;;;;;;1.77;1.00;;;18.90;33.20;;;;;;5038374;28;20162;-85
2022/05/09 01:55:58;;;;;;;0.98;0.77;;;18.90;33.20;;;;;;5021948;28;20174;-86
2022/05/09 01:58:25;;;;;;;1.88;0.95;;;18.90;33.20;;;;;;5021988;28;20177;-86
2022/05/09 02:00:52;;;;;;;1.38;0.85;;;19.00;33.20;;;;;;5020974;28;20177;-85
2022/05/09 02:03:19;;;;;;;1.23;0.90;;;18.90;33.20;;;;;;5038117;28;20609;-86
2022/05/09 02:05:45;;;;;;;1.33;0.90;;;18.90;33.20;;;;;;5037364;28;20263;-85
2022/05/09 02:08:11;;;;;;;2.08;0.90;;;18.90;33.20;;;;;;5037748;28;20249;-86
2022/05/09 02:10:37;;;;;;;2.40;1.20;;;18.90;33.30;;;;;;5037970;28;20166;-85
2022/05/09 02:13:03;;;;;;;2.15;1.00;;;18.90;33.30;;;;;;5021466;28;20165;-86
2022/05/09 02:15:31;;;;;;;1.92;0.80;;;18.90;33.30;;;;;;5056008;28;20193;-85
2022/05/09 02:17:57;;;;;;;1.27;0.80;;;18.90;33.40;;;;;;5021626;28;20675;-86
2022/05/09 02:20:23;;;;;;;1.10;0.82;;;18.90;33.40;;;;;;5021535;28;20261;-86
2022/05/09 02:22:49;;;;;;;1.50;0.88;;;18.90;33.40;;;;;;5021310;28;20260;-85
2022/05/09 02:25:30;;;;;;;2.53;0.95;;;18.80;33.30;;;;;;5021081;28;20170;-85
2022/05/09 02:27:58;;;;;;;1.23;0.90;;;18.90;33.40;;;;;;5023158;28;20193;-86
2022/05/09 02:30:24;;;;;;;2.92;0.90;;;18.90;33.50;;;;;;5037939;28;20154;-85
2022/05/09 02:32:50;;;;;;;1.17;0.80;;;18.90;33.50;;;;;;5021140;28;20513;-85
2022/05/09 02:35:16;;;;;;;0.80;0.70;;;18.90;33.50;;;;;;5055431;28;20492;-87
2022/05/09 02:37:43;;;;;;;1.85;0.93;;;18.90;33.50;;;;;;5022046;28;20185;-85
2022/05/09 02:40:10;;;;;;;1.70;0.95;;;18.80;33.60;;;;;;5020343;28;20228;-85
2022/05/09 02:42:37;;;;;;;1.60;0.95;;;18.90;34.30;;;;;;5037494;28;20154;-85
2022/05/09 02:45:03;;;;;;;2.38;0.93;;;18.80;33.60;;;;;;5055105;28;20143;-86
2022/05/09 02:47:29;;;;;;;1.15;1.00;;;18.80;33.70;;;;;;5037190;28;20161;-86
2022/05/09 02:49:55;;;;;;;0.80;0.70;;;18.80;33.60;;;;;;5037277;28;20190;-85
2022/05/09 02:52:21;;;;;;;0.93;0.82;;;18.90;33.70;;;;;;5020410;28;20537;-85
2022/05/09 02:54:48;;;;;;;1.33;0.60;;;18.80;33.60;;;;;;5037223;28;20151;-85
2022/05/09 02:57:14;;;;;;;2.15;0.90;;;18.80;33.70;;;;;;5020580;28;20248;-86
2022/05/09 02:59:41;;;;;;;1.10;0.77;;;18.80;33.60;;;;;;5020324;28;20177;-85
2022/05/09 03:02:08;;;;;;;2.08;0.90;;;18.80;33.70;;;;;;5020799;28;20280;-86
2022/05/09 03:04:41;;;;;;;1.30;0.77;;;18.80;33.80;;;;;;5020664;28;20162;-85
2022/05/09 03:07:09;;;;;;;1.15;1.00;;;18.80;33.70;;;;;;5021360;28;20526;-86
2022/05/09 03:09:36;;;;;;;1.17;0.65;;;18.80;33.70;;;;;;5020225;28;20685;-86
2022/05/09 03:12:03;;;;;;;2.80;1.10;;;18.80;33.80;;;;;;5020234;28;20621;-86
2022/05/09 03:14:31;;;;;;;0.90;0.90;;;18.80;33.80;;;;;;5020322;28;20635;-86
2022/05/09 03:16:59;;;;;;;1.17;0.80;;;18.80;33.80;;;;;;5019657;28;20625;-86
2022/05/09 03:19:27;;;;;;;1.90;0.80;;;18.80;33.90;;;;;;5003193;28;20189;-85
2022/05/09 03:21:55;;;;;;;1.58;1.05;;;18.80;33.90;;;;;;5019582;28;20216;-86
2022/05/09 03:24:22;;;;;;;1.17;0.95;;;18.80;33.90;;;;;;5019457;28;20186;-86
2022/05/09 03:26:50;;;;;;;1.60;0.90;;;18.80;33.90;;;;;;5019414;28;20182;-86
2022/05/09 03:29:18;;;;;;;1.45;0.90;;;18.80;33.90;;;;;;5019262;28;20304;-86
2022/05/09 03:31:47;;;;;;;1.10;0.75;;;18.80;33.90;;;;;;5019635;28;20704;-85
2022/05/09 03:34:15;;;;;;;1.25;0.90;;;18.80;34.00;;;;;;5003149;28;20182;-86
2022/05/09 03:36:42;;;;;;;1.33;0.80;;;18.80;34.10;;;;;;5019487;28;20221;-85
2022/05/09 03:39:08;;;;;;;0.95;0.73;;;18.80;34.10;;;;;;5035641;28;20760;-85
2022/05/09 03:41:34;;;;;;;2.05;0.88;;;18.80;34.00;;;;;;5054340;28;20165;-86
2022/05/09 03:43:59;;;;;;;1.80;0.98;;;18.80;34.10;;;;;;5036647;28;20237;-86
2022/05/09 03:46:25;;;;;;;1.40;0.73;;;18.80;34.10;;;;;;5036191;28;20186;-85
2022/05/09 03:48:51;;;;;;;1.08;0.98;;;18.80;34.10;;;;;;5036034;28;20188;-86
2022/05/09 03:51:16;;;;;;;1.02;0.68;;;18.80;34.20;;;;;;5036456;28;20150;-86
2022/05/09 03:53:43;;;;;;;1.33;0.90;;;18.80;34.10;;;;;;5019457;28;20264;-85
2022/05/09 03:56:10;;;;;;;1.10;0.70;;;18.70;34.20;;;;;;5018986;28;20185;-86
2022/05/09 03:58:38;;;;;;;2.13;1.10;;;18.80;34.20;;;;;;5002464;28;20178;-86
2022/05/09 04:01:05;;;;;;;0.73;0.73;;;18.80;34.40;;;;;;5002162;28;20228;-85
2022/05/09 04:03:32;;;;;;;1.20;0.80;;;18.80;34.40;;;;;;5001850;28;20182;-86
2022/05/09 04:05:59;;;;;;;2.47;0.90;;;18.70;34.40;;;;;;5002111;28;20213;-86
2022/05/09 04:08:24;;;;;;;0.93;0.70;;;18.70;34.40;;;;;;5001892;28;20213;-86
2022/05/09 04:10:53;;;;;;;0.93;0.77;;;18.70;34.40;;;;;;5019613;28;20211;-85
2022/05/09 04:13:19;;;;;;;1.17;0.90;;;18.70;34.40;;;;;;5035568;28;20680;-86
2022/05/09 04:18:25;;;;;;;0.80;0.80;;;18.70;34.40;;;;;;5037524;28;20157;-86
2022/05/09 04:20:51;;;;;;;0.82;0.70;;;18.70;34.40;;;;;;5019118;28;20177;-85
2022/05/09 04:23:17;;;;;;;1.58;0.90;;;18.70;34.40;;;;;;5035666;28;20255;-86
2022/05/09 04:25:43;;;;;;;1.05;0.80;;;18.80;34.60;;;;;;5019188;28;20644;-85
2022/05/09 04:28:08;;;;;;;2.15;0.90;;;18.70;34.60;;;;;;5019128;28;20224;-86
2022/05/09 04:30:35;;;;;;;0.95;0.80;;;18.70;34.60;;;;;;5035875;28;20166;-85
2022/05/09 04:33:01;;;;;;;0.80;0.75;;;18.70;34.50;;;;;;5018923;28;20201;-85
2022/05/09 04:35:27;;;;;;;2.88;0.93;;;18.80;34.50;;;;;;5035824;28;20585;-85
2022/05/09 04:37:53;;;;;;;0.70;0.70;;;18.80;34.50;;;;;;5019146;28;20194;-85
2022/05/09 04:40:29;;;;;;;1.00;0.80;;;18.80;34.50;;;;;;5035301;28;20621;-85
2022/05/09 04:42:56;;;;;;;1.85;0.80;;;18.80;34.50;;;;;;5018762;28;20521;-86
2022/05/09 04:45:22;;;;;;;0.93;0.70;;;18.80;34.50;;;;;;5019146;28;20166;-85
2022/05/09 04:47:50;;;;;;;1.52;0.90;;;18.80;34.50;;;;;;5019030;28;20208;-85
2022/05/09 04:50:17;;;;;;;1.13;0.90;;;18.80;34.50;;;;;;5035312;28;20190;-86
2022/05/09 04:52:42;;;;;;;1.38;0.90;;;18.90;34.60;;;;;;5035123;28;20150;-85
2022/05/09 04:55:09;;;;;;;0.80;0.70;;;18.80;34.60;;;;;;5018502;28;20660;-85
2022/05/09 04:57:35;;;;;;;0.70;0.70;;;18.80;34.60;;;;;;5053023;28;20158;-85
2022/05/09 05:00:01;;;;;;;1.90;1.00;;;18.90;34.60;;;;;;5052840;28;20621;-86
2022/05/09 05:02:27;;;;;;;0.77;0.77;;;18.80;34.50;;;;;;5035328;28;20154;-86
2022/05/09 05:04:53;;;;;;;1.33;0.80;;;18.80;34.70;;;;;;5035120;28;20173;-85
2022/05/09 05:07:18;;;;;;;2.47;0.88;;;18.80;34.70;;;;;;5018586;28;20166;-86
2022/05/09 05:09:44;;;;;;;0.93;0.80;;;18.90;34.70;;;;;;5034774;28;20221;-85
2022/05/09 05:12:10;;;;;;;1.90;1.20;;;18.90;34.80;;;;;;5053430;28;20162;-86
2022/05/09 05:14:35;;;;;;;1.08;0.80;;;18.80;34.80;;;;;;5035041;28;20159;-86
2022/05/09 05:17:01;;;;;;;1.60;0.80;;;18.90;34.90;;;;;;5038055;28;20269;-85
2022/05/09 05:19:31;;;;;;;1.88;0.90;;;18.90;34.90;;;;;;5039232;28;20154;-85
2022/05/09 05:21:57;;;;;;;0.80;0.80;;;18.90;34.90;;;;;;5039216;28;20158;-86
2022/05/09 05:24:23;;;;;;;1.00;0.65;;;18.90;34.90;;;;;;5039235;28;20162;-86
2022/05/09 05:26:49;;;;;;;1.45;0.88;;;18.90;34.90;;;;;;5038767;28;20639;-85
2022/05/09 05:29:15;;;;;;;0.70;0.70;;;18.90;34.80;;;;;;5038868;28;20225;-86
2022/05/09 05:31:41;;;;;;;1.35;0.77;;;18.90;34.80;;;;;;5022285;28;20170;-86
2022/05/09 05:34:07;;;;;;;0.98;0.85;;;18.90;34.80;;;;;;5038556;28;20567;-85
2022/05/09 05:36:32;;;;;;;2.10;0.70;;;18.90;34.90;;;;;;5022025;28;20173;-85
2022/05/09 05:38:59;;;;;;;0.60;0.50;;;18.90;34.90;;;;;;5056376;28;20170;-86
2022/05/09 05:41:25;;;;;;;1.52;0.90;;;18.90;34.90;;;;;;5022290;28;20369;-85
2022/05/09 05:43:51;;;;;;;0.93;0.70;;;18.90;34.90;;;;;;5056318;28;20500;-85
2022/05/09 05:46:17;;;;;;;0.68;0.68;;;18.90;34.90;;;;;;5038446;28;20159;-85
2022/05/09 05:48:42;;;;;;;0.68;0.60;;;19.00;34.90;;;;;;5022687;28;20197;-86
2022/05/09 05:51:08;;;;;;;1.10;0.68;;;18.90;34.80;;;;;;5038431;28;20166;-85
2022/05/09 05:53:35;;;;;;;2.25;0.88;;;19.00;34.90;;;;;;5021990;28;20174;-85
2022/05/09 05:56:01;;;;;;;2.70;0.80;;;19.00;34.90;;;;;;5038461;28;20158;-85
2022/05/09 05:58:30;;;;;;;1.05;0.80;;;19.00;35.00;;;;;;5038342;28;20277;-85
2022/05/09 06:00:56;;;;;;;1.00;0.68;;;19.00;35.00;;;;;;5022583;28;20647;-86
2022/05/09 06:03:22;;;;;;;1.65;0.80;;;19.00;35.00;;;;;;5038653;28;20609;-85
2022/05/09 06:05:48;;;;;;;1.10;0.80;;;19.00;35.00;;;;;;5038885;28;20166;-86
2022/05/09 06:08:16;;;;;;;0.82;0.80;;;18.90;35.00;;;;;;5023914;28;20680;-85
2022/05/09 06:10:42;;;;;;;0.98;0.80;;;19.00;35.80;;;;;;5040821;28;20186;-85
2022/05/09 06:13:07;;;;;;;1.05;0.65;;;19.00;35.20;;;;;;5040594;28;20185;-85
2022/05/09 06:15:34;;;;;;;1.98;0.85;;;19.00;35.20;;;;;;5023783;28;20491;-86
2022/05/09 06:18:04;;;;;;;0.70;0.60;;;19.00;35.30;;;;;;5040960;28;20233;-86
2022/05/09 06:20:33;;;;;;;0.73;0.73;;;19.00;35.30;;;;;;4979864;28;20183;-87
2022/05/09 06:23:03;;;;;;;0.70;0.70;;;19.10;35.30;;;;;;4966392;28;20205;-87
2022/05/09 06:25:30;;;;;;;1.30;0.80;;;19.10;35.30;;;;;;4950465;28;20575;-88
2022/05/09 06:28:01;;;;;;;1.83;0.85;;;19.10;35.10;;;;;;4980518;28;20218;-86
2022/05/09 06:30:32;;;;;;;1.02;0.80;;;19.00;35.20;;;;;;4952476;28;20184;-89
2022/05/09 06:33:02;;;;;;;0.70;0.70;;;19.00;35.30;;;;;;4972283;28;20177;-86
2022/05/09 06:35:28;;;;;;;1.67;0.90;;;19.00;35.40;;;;;;4987528;28;20180;-88
2022/05/09 06:37:57;;;;;;;1.80;0.77;;;19.00;35.50;;;;;;4969690;28;20168;-88
2022/05/09 06:40:23;;;;;;;1.40;0.80;;;19.00;35.50;;;;;;4968779;28;20203;-85
2022/05/09 06:42:51;;;;;;;1.00;0.77;;;19.00;35.70;;;;;;4968484;28;20219;-89
2022/05/09 06:45:25;;;;;;;0.95;0.77;;;18.90;35.50;;;;;;4968358;28;20674;-89
2022/05/09 06:47:53;;;;;;;5.55;0.90;;;19.00;35.70;;;;;;4956889;28;20187;-90
2022/05/09 06:50:23;;;;;;;4.60;1.00;;;19.00;35.70;;;;;;4968236;28;20187;-88
2022/05/09 06:52:49;;;;;;;3.42;1.00;;;19.00;35.70;;;;;;5024941;28;20304;-85
2022/05/09 06:55:21;;;;;;;4.82;0.82;;;19.00;35.70;;;;;;5024476;28;20276;-83
2022/05/09 06:57:49;;;;;;;4.13;1.02;;;19.00;35.80;;;;;;5018363;28;20666;-83
2022/05/09 07:00:17;;;;;;;0.80;0.70;;;19.00;36.40;;;;;;5019586;28;20175;-84
2022/05/09 07:02:45;;;;;;;4.13;0.70;;;19.10;36.50;;;;;;5013125;28;20250;-85
2022/05/09 07:05:12;;;;;;;1.25;0.70;;;19.10;36.10;;;;;;5019800;28;20151;-84
2022/05/09 07:07:39;;;;;;;1.20;0.70;;;19.20;35.70;;;;;;5004165;28;20184;-84
2022/05/09 07:10:05;;;;;;;0.98;0.75;;;19.20;36.10;;;;;;4994437;28;20195;-84
2022/05/09 07:12:31;;;;;;;1.92;0.90;;;19.10;35.70;;;;;;4998874;28;20179;-83
2022/05/09 07:14:57;;;;;;;2.15;0.90;;;19.20;35.90;;;;;;4995441;28;20242;-83
2022/05/09 07:17:22;;;;;;;1.50;1.00;;;19.30;36.50;;;;;;5016694;28;20195;-84
2022/05/09 07:19:53;;;;;;;3.92;0.80;;;19.30;36.00;;;;;;4992664;28;20183;-85
2022/05/09 07:22:19;;;;;;;2.78;0.70;;;19.20;35.90;;;;;;5014145;28;20186;-83
2022/05/09 07:24:47;;;;;;;2.67;0.82;;;19.30;36.00;;;;;;5004308;28;20262;-83
2022/05/09 07:27:13;;;;;;;2.58;0.77;;;19.20;35.70;;;;;;4986444;28;20179;-83
2022/05/09 07:29:38;;;;;;;2.17;0.95;;;19.10;35.80;;;;;;5044505;28;20240;-84
2022/05/09 07:32:04;;;;;;;1.35;0.90;;;19.20;36.00;;;;;;5062654;28;20173;-82
2022/05/09 07:34:30;;;;;;;4.80;1.00;;;19.10;36.00;;;;;;5043127;28;20170;-83
2022/05/09 07:36:55;;;;;;;2.65;0.90;;;19.10;36.00;;;;;;5053197;28;20176;-82
2022/05/09 07:39:21;;;;;;;3.10;0.70;;;19.20;36.10;;;;;;5042218;28;20165;-83
2022/05/09 07:41:51;;;;;;;1.20;0.88;;;19.30;36.20;;;;;;5057711;28;20189;-83
2022/05/09 07:44:19;;;;;;;1.63;0.95;;;19.20;36.00;;;;;;4999919;28;20196;-83
2022/05/09 07:46:45;;;;;;;3.33;0.90;;;19.20;36.10;;;;;;5052045;28;20173;-84
2022/05/09 07:49:11;;;;;;;3.33;0.90;;;19.20;36.10;;;;;;5066011;28;20207;-83
2022/05/09 07:51:37;;;;;;;3.38;0.82;;;19.20;36.20;;;;;;5042536;28;20188;-83
2022/05/09 07:54:04;;;;;;;2.45;0.70;;;19.30;36.20;;;;;;5068839;28;20261;-83
2022/05/09 07:59:43;;;;;;;9.40;1.10;;;19.30;36.10;;;;;;5027811;28;20185;-83
2022/05/09 08:02:18;;;;;;;4.70;1.10;;;19.30;36.10;;;;;;5054728;28;20233;-84
2022/05/09 08:04:47;;;;;;;5.38;1.10;;;19.40;36.20;;;;;;5014602;28;20185;-83
2022/05/09 08:07:33;;;;;;;4.05;0.90;;;19.30;36.30;;;;;;5052154;28;20268;-83
2022/05/09 08:09:58;;;;;;;5.63;1.13;;;19.30;36.30;;;;;;5021527;28;20228;-83
2022/05/09 08:12:24;;;;;;;3.72;0.77;;;19.40;36.40;;;;;;5044573;28;20177;-84
2022/05/09 08:14:52;;;;;;;2.28;1.00;;;19.40;36.50;;;;;;5012271;28;20213;-84
2022/05/09 08:17:18;;;;;;;2.72;0.88;;;19.30;36.20;;;;;;5046746;28;20196;-83
2022/05/09 08:19:45;;;;;;;2.25;0.90;;;19.40;36.30;;;;;;5048683;28;20162;-83
2022/05/09 08:22:10;;;;;;;6.50;1.20;;;19.30;36.40;;;;;;5032911;28;20194;-83
2022/05/09 08:24:37;;;;;;;5.70;0.82;;;19.40;36.20;;;;;;5018064;28;20159;-83
2022/05/09 08:27:23;;;;;;;3.75;1.02;;;19.40;36.00;;;;;;5019018;28;20169;-82
2022/05/09 08:30:09;;;;;;;3.90;0.95;;;19.40;35.90;;;;;;5014074;28;20203;-83
2022/05/09 08:32:55;;;;;;;2.47;0.88;;;19.40;35.90;;;;;;4980469;28;20186;-83
2022/05/09 08:35:42;;;;;;;3.47;0.80;;;19.50;35.90;;;;;;4993450;28;20187;-83
2022/05/09 08:38:30;;;;;;;1.50;0.88;;;19.50;35.90;;;;;;4938898;29;20185;-84
2022/05/09 08:41:16;;;;;;;11.63;0.98;;;19.50;35.90;;;;;;4945478;29;20244;-83
2022/05/09 08:44:05;;;;;;;6.72;1.42;;;19.50;35.90;;;;;;4914762;29;20189;-83
2022/05/09 08:47:05;;;;;;;18.95;1.63;;;19.50;35.80;;;;;;4924142;29;20189;-84
2022/05/09 08:50:36;;;;;;;15.57;1.95;;;19.40;35.90;;;;;;4894318;29;20218;-82
2022/05/09 08:53:12;;;;;;;15.00;2.15;;;19.50;36.10;;;;;;4879991;29;20655;-83
2022/05/09 08:56:01;;;;;;;17.70;1.67;;;19.50;35.80;;;;;;4874299;29;20231;-85
2022/05/09 09:02:31;;;;;;;7.93;1.20;;;19.50;35.80;;;;;;4868201;29;20209;-84
2022/05/09 09:05:37;;;;;;;9.13;1.42;;;19.50;35.90;;;;;;4847867;29;20185;-84
2022/05/09 09:08:06;;;;;;;9.25;1.30;;;19.50;35.80;;;;;;4869273;29;20286;-83
2022/05/09 09:10:55;;;;;;;2.75;1.23;;;19.50;35.50;;;;;;4919902;29;20159;-83
2022/05/09 09:13:52;;;;;;;2.80;1.38;;;19.60;35.50;;;;;;4901612;29;20182;-84
2022/05/09 09:17:16;;;;;;;;;;;;;;;;;;;;;
2022/05/09 09:20:08;;;;;;;1.67;1.00;;;19.60;35.30;;;;;;4823646;29;20278;-83
2022/05/09 09:22:59;;;;;;;5.25;0.80;;;19.50;35.40;;;;;;4825546;29;20253;-84
2022/05/09 09:26:22;;;;;;;12.00;1.20;;;19.60;35.30;;;;;;4828843;29;20219;-83
2022/05/09 09:29:16;;;;;;;2.22;0.85;;;19.50;35.40;;;;;;4869041;29;20609;-84
2022/05/09 09:32:08;;;;;;;6.80;1.08;;;19.50;35.40;;;;;;4859676;29;20316;-83
2022/05/09 09:34:56;;;;;;;6.32;1.25;;;19.50;35.30;;;;;;4849724;29;20184;-83
2022/05/09 09:37:39;;;;;;;4.47;0.80;;;19.50;35.30;;;;;;4851032;29;20271;-83
2022/05/09 09:40:30;;;;;;;5.30;1.13;;;19.40;35.10;;;;;;4847501;29;20231;-84
2022/05/09 09:43:30;;;;;;;3.22;1.08;;;19.40;35.40;;;;;;4853019;29;20244;-84
2022/05/09 09:46:16;;;;;;;6.95;1.10;;;19.40;35.20;;;;;;4846481;29;20279;-83
2022/05/09 09:49:00;;;;;;;6.25;1.00;;;19.40;35.10;;;;;;4861496;29;20235;-84
2022/05/09 09:51:30;;;;;;;8.70;0.93;;;19.50;35.00;;;;;;4869350;29;20230;-84
2022/05/09 09:54:16;;;;;;;3.72;0.82;;;19.50;34.90;;;;;;4868732;29;20182;-84
2022/05/09 09:57:00;;;;;;;5.72;1.00;;;19.40;34.80;;;;;;4869020;29;20699;-84
2022/05/09 09:59:44;;;;;;;6.00;1.23;;;19.40;34.70;;;;;;4876748;29;20333;-84
2022/05/09 10:02:30;;;;;;;4.05;1.08;;;19.40;34.80;;;;;;4923421;29;20248;-83
2022/05/09 10:05:11;;;;;;;3.47;1.25;;;19.40;34.60;;;;;;4941033;29;20193;-84
2022/05/09 10:07:49;;;;;;;5.47;1.15;;;19.40;34.40;;;;;;4925126;29;20192;-84
2022/05/09 10:10:28;;;;;;;2.47;1.00;;;19.50;34.40;;;;;;4939821;29;20247;-84
2022/05/09 10:13:16;;;;;;;1.35;0.80;;;19.50;34.10;;;;;;4955496;28;20266;-84
2022/05/09 10:16:33;;;;;;;3.60;1.48;;;19.50;34.00;;;;;;4966926;28;20203;-84
2022/05/09 10:19:30;;;;;;;2.88;1.10;;;19.50;33.80;;;;;;4997864;28;20546;-84
2022/05/09 10:25:24;;;;;;;3.13;1.27;;;19.50;33.60;;;;;;4972104;28;20211;-84
2022/05/09 10:28:05;;;;;;;2.65;0.90;;;19.50;33.50;;;;;;4997688;28;20205;-84
2022/05/09 10:30:43;;;;;;;2.42;0.90;;;19.40;33.40;;;;;;4997705;28;20164;-84
2022/05/09 10:33:38;;;;;;;2.20;1.05;;;19.50;33.30;;;;;;4949161;28;20184;-84
2022/05/09 10:36:17;;;;;;;2.30;1.10;;;19.40;33.00;;;;;;4967458;28;20183;-84
2022/05/09 10:38:58;;;;;;;1.10;0.70;;;19.40;33.20;;;;;;5004352;28;20182;-84
2022/05/09 10:41:40;;;;;;;1.70;1.10;;;19.40;33.30;;;;;;5005135;28;20185;-83
2022/05/09 10:44:36;;;;;;;1.98;1.00;;;19.40;33.00;;;;;;4989248;28;20182;-84
2022/05/09 10:47:43;;;;;;;6.25;1.00;;;19.40;32.80;;;;;;5011515;28;20185;-84
2022/05/09 10:50:35;;;;;;;0.75;0.70;;;19.50;33.50;;;;;;5036923;28;20186;-84
2022/05/09 10:53:26;;;;;;;1.83;0.75;;;19.60;32.60;;;;;;5054947;28;20146;-84
2022/05/09 10:56:31;;;;;;;4.90;1.00;;;19.60;32.40;;;;;;5020128;28;20212;-84
2022/05/09 10:59:23;;;;;;;2.08;0.88;;;19.70;32.30;;;;;;5005341;28;20177;-84
2022/05/09 11:02:17;;;;;;;3.05;0.95;;;19.70;32.00;;;;;;5004673;28;20178;-84
2022/05/09 11:04:57;;;;;;;2.63;0.98;;;19.70;32.10;;;;;;5007103;28;20315;-84
2022/05/09 11:07:38;;;;;;;3.63;0.80;;;19.60;32.00;;;;;;5019504;28;20667;-84
2022/05/09 11:10:28;;;;;;;2.58;0.80;;;19.60;31.90;;;;;;5036856;28;20198;-84
2022/05/09 11:13:18;;;;;;;4.03;1.20;;;19.60;32.00;;;;;;5003932;28;20186;-84
2022/05/09 11:15:58;;;;;;;3.05;1.00;;;19.50;32.40;;;;;;5037147;28;20165;-84
2022/05/09 11:18:39;;;;;;;3.88;1.10;;;19.50;32.30;;;;;;5036830;28;20192;-84
2022/05/09 11:21:41;;;;;;;2.45;0.93;;;19.50;32.00;;;;;;5020200;28;20231;-84
2022/05/09 11:24:43;;;;;;;1.00;0.73;;;19.50;31.90;;;;;;5036675;28;20161;-84
2022/05/09 11:27:42;;;;;;;1.80;0.98;;;19.50;31.80;;;;;;5003149;28;20189;-84
2022/05/09 11:30:52;;;;;;;2.65;0.95;;;19.50;31.80;;;;;;5004963;28;20262;-84
2022/05/09 11:33:58;;;;;;;2.45;0.95;;;19.50;31.80;;;;;;5019166;28;20182;-84
2022/05/09 11:36:46;;;;;;;3.15;0.93;;;19.50;31.90;;;;;;4987429;28;20704;-84
2022/05/09 11:39:39;;;;;;;1.77;0.90;;;19.50;31.80;;;;;;5018399;28;20223;-84
2022/05/09 11:45:43;;;;;;;1.73;1.23;;;19.40;31.20;;;;;;5041392;28;20709;-84
2022/05/09 11:48:28;;;;;;;1.20;1.10;;;19.50;31.60;;;;;;5036238;28;20150;-84
2022/05/09 11:51:23;;;;;;;1.83;0.95;;;19.50;31.30;;;;;;5004516;28;20186;-84
2022/05/09 11:54:01;;;;;;;1.42;1.00;;;19.50;31.50;;;;;;5038709;28;20209;-83
2022/05/09 11:56:33;;;;;;;3.95;1.10;;;19.50;31.40;;;;;;5036721;28;20185;-84
2022/05/09 11:59:03;;;;;;;1.13;0.82;;;19.50;31.20;;;;;;5035331;28;20182;-85
2022/05/09 12:02:04;;;;;;;3.38;1.20;;;19.50;31.10;;;;;;5018820;28;20178;-84
2022/05/09 12:04:42;;;;;;;2.28;1.10;;;19.50;31.50;;;;;;5018664;28;20208;-84
2022/05/09 12:07:43;;;;;;;2.47;1.00;;;19.50;31.30;;;;;;5019299;28;20185;-85
2022/05/09 12:10:17;;;;;;;1.27;1.00;;;19.50;31.30;;;;;;5038634;28;20189;-84
2022/05/09 12:12:45;;;;;;;2.47;1.30;;;19.50;30.90;;;;;;5019123;28;20235;-84
2022/05/09 12:15:40;;;;;;;2.47;0.90;;;19.50;31.00;;;;;;5018964;28;20166;-84
2022/05/09 12:18:16;;;;;;;1.00;0.80;;;19.50;31.40;;;;;;5035608;28;20150;-84
2022/05/09 12:21:11;;;;;;;1.20;1.00;;;19.50;31.20;;;;;;5035653;28;20150;-85
2022/05/09 12:24:13;;;;;;;1.10;1.00;;;19.60;31.50;;;;;;5002080;28;20240;-85
2022/05/09 12:26:42;;;;;;;3.15;1.13;;;19.60;31.50;;;;;;5053647;28;20149;-85
2022/05/09 12:29:30;;;;;;;2.78;1.20;;;19.60;31.20;;;;;;5019307;28;20217;-84
2022/05/09 12:32:14;;;;;;;2.60;1.00;;;19.60;31.40;;;;;;5036311;28;20150;-84
2022/05/09 12:41:15;;;;;;;3.33;0.90;;;19.60;32.10;;;;;;5053654;28;20582;-83
2022/05/09 12:43:53;;;;;;;1.05;0.90;;;19.50;32.60;;;;;;4986373;28;20189;-82
2022/05/09 12:46:23;;;;;;;2.10;1.10;;;19.60;32.30;;;;;;5019839;28;20239;-83
2022/05/09 12:48:51;;;;;;;2.50;1.00;;;19.60;32.50;;;;;;5019077;28;20205;-84
2022/05/09 12:51:18;;;;;;;1.98;0.93;;;19.60;32.60;;;;;;5034889;28;20178;-83
2022/05/09 12:53:45;;;;;;;1.30;0.82;;;19.60;33.10;;;;;;5036452;28;20186;-84
2022/05/09 12:56:16;;;;;;;1.30;0.85;;;19.60;32.70;;;;;;5036767;28;20205;-84
2022/05/09 12:58:45;;;;;;;3.75;1.08;;;19.60;33.30;;;;;;5021348;28;20190;-84
2022/05/09 13:01:19;;;;;;;1.60;0.80;;;19.60;33.70;;;;;;5036638;28;20204;-84
2022/05/09 13:03:51;;;;;;;1.67;0.80;;;19.60;33.50;;;;;;5037087;28;20182;-84
2022/05/09 13:06:21;;;;;;;2.22;0.90;;;19.50;33.30;;;;;;5043684;28;20180;-84
2022/05/09 13:08:47;;;;;;;0.98;0.65;;;19.50;33.60;;;;;;5010461;28;20226;-84
2022/05/09 13:11:16;;;;;;;2.15;1.00;;;19.50;34.10;;;;;;5034964;28;20533;-84
2022/05/09 13:13:46;;;;;;;0.90;0.70;;;19.50;34.10;;;;;;5052990;28;20565;-84
2022/05/09 13:16:19;;;;;;;1.00;0.90;;;19.50;34.40;;;;;;5035091;28;20250;-85
2022/05/09 13:18:44;;;;;;;1.20;0.80;;;19.50;34.40;;;;;;5036969;28;20158;-85
2022/05/09 13:21:11;;;;;;;1.83;1.00;;;19.50;34.80;;;;;;5036449;28;20528;-85
2022/05/09 13:23:39;;;;;;;1.65;1.10;;;19.50;35.10;;;;;;5035116;28;20182;-84
2022/05/09 13:26:06;;;;;;;0.93;0.90;;;19.50;34.30;;;;;;5034701;28;20163;-84
2022/05/09 13:28:42;;;;;;;0.77;0.77;;;19.50;34.50;;;;;;5034658;28;20660;-84
2022/05/09 13:31:08;;;;;;;1.67;0.80;;;19.50;35.00;;;;;;5034695;28;20150;-84
2022/05/09 13:33:33;;;;;;;1.13;0.90;;;19.50;34.80;;;;;;5034937;28;20154;-84
2022/05/09 13:36:03;;;;;;;2.83;1.00;;;19.50;35.10;;;;;;5034946;28;20193;-84
2022/05/09 13:38:38;;;;;;;1.00;0.90;;;19.50;34.90;;;;;;5054215;28;20158;-84
2022/05/09 13:41:08;;;;;;;1.70;1.05;;;19.50;35.20;;;;;;5036877;28;20522;-83
2022/05/09 13:43:39;;;;;;;1.27;0.93;;;19.60;35.50;;;;;;5053708;28;20162;-84
2022/05/09 13:46:18;;;;;;;1.13;1.02;;;19.60;35.30;;;;;;5055162;28;20173;-84
2022/05/09 13:48:48;;;;;;;1.45;0.93;;;19.50;35.30;;;;;;5071840;28;20201;-84